createdAt,value
2018-11-29T00:00:24.233Z,95.31
2018-11-29T00:02:51.609Z,96.69
2018-11-29T00:05:18.955Z,96.55
2018-11-29T00:07:46.237Z,96.05
2018-11-29T00:10:13.467Z,95.73
2018-11-29T00:12:40.752Z,96.27
2018-11-29T00:15:09.367Z,95.81
2018-11-29T00:17:37.238Z,95.51
2018-11-29T00:20:06.979Z,95.69
2018-11-29T00:22:34.235Z,95.14
2018-11-29T00:25:01.487Z,96.03
2018-11-29T00:27:28.745Z,95.81
2018-11-29T00:29:55.955Z,95.18
2018-11-29T00:32:23.266Z,95.45
2018-11-29T00:34:51.770Z,95.57
2018-11-29T00:37:18.975Z,95.82
2018-11-29T00:39:46.278Z,95.80
2018-11-29T00:42:13.494Z,95.12
2018-11-29T00:44:40.687Z,94.95
2018-11-29T00:47:07.999Z,94.57
2018-11-29T00:49:35.335Z,94.05
2018-11-29T00:52:02.570Z,93.76
2018-11-29T00:54:29.882Z,94.25
2018-11-29T00:56:57.150Z,93.87
2018-11-29T00:59:24.372Z,93.79
2018-11-29T01:01:58.777Z,93.81
2018-11-29T01:04:26.055Z,93.46
2018-11-29T01:06:53.306Z,93.48
2018-11-29T01:09:20.541Z,93.60
2018-11-29T01:11:47.769Z,93.32
2018-11-29T01:14:15.022Z,93.09
2018-11-29T01:16:42.268Z,93.18
2018-11-29T01:19:09.530Z,93.49
2018-11-29T01:21:36.782Z,93.56
2018-11-29T01:24:04.087Z,93.79
2018-11-29T01:26:31.289Z,93.19
2018-11-29T01:28:58.526Z,92.21
2018-11-29T01:31:25.765Z,92.85
2018-11-29T01:33:53.314Z,93.06
2018-11-29T01:36:20.532Z,92.76
2018-11-29T01:38:47.781Z,92.71
2018-11-29T01:41:15.043Z,92.22
2018-11-29T01:43:42.435Z,92.09
2018-11-29T01:46:09.689Z,91.87
2018-11-29T01:48:36.940Z,92.21
2018-11-29T01:51:04.597Z,92.01
2018-11-29T01:53:31.879Z,91.81
2018-11-29T01:55:59.102Z,92.03
2018-11-29T01:58:26.443Z,92.02
2018-11-29T02:00:53.674Z,92.53
2018-11-29T02:03:22.110Z,92.14
2018-11-29T02:05:49.538Z,91.49
2018-11-29T02:08:16.815Z,91.42
2018-11-29T02:10:50.997Z,91.38
2018-11-29T02:13:19.141Z,91.35
2018-11-29T02:15:46.525Z,91.37
2018-11-29T02:18:13.843Z,90.36
2018-11-29T02:20:41.099Z,90.70
2018-11-29T02:23:08.358Z,91.03
2018-11-29T02:25:35.648Z,91.61
2018-11-29T02:28:03.490Z,90.28
2018-11-29T02:30:30.759Z,90.48
2018-11-29T02:32:58.006Z,90.10
2018-11-29T02:35:25.245Z,89.71
2018-11-29T02:37:54.362Z,89.70
2018-11-29T02:40:21.650Z,89.82
2018-11-29T02:42:49.396Z,90.10
2018-11-29T02:45:20.662Z,89.80
2018-11-29T02:47:50.954Z,89.36
2018-11-29T02:50:18.238Z,89.21
2018-11-29T02:52:49.427Z,89.37
2018-11-29T02:55:19.848Z,89.88
2018-11-29T02:57:47.129Z,89.58
2018-11-29T03:00:15.333Z,90.06
2018-11-29T03:02:42.692Z,89.84
2018-11-29T03:05:10.073Z,90.69
2018-11-29T03:07:37.622Z,90.53
2018-11-29T03:10:07.498Z,90.42
2018-11-29T03:12:34.861Z,91.10
2018-11-29T03:15:02.246Z,91.86
2018-11-29T03:17:29.544Z,91.64
2018-11-29T03:19:59.622Z,91.55
2018-11-29T03:22:26.876Z,92.02
2018-11-29T03:24:54.094Z,91.65
2018-11-29T03:27:21.361Z,91.98
2018-11-29T03:29:54.537Z,92.20
2018-11-29T03:32:21.856Z,92.04
2018-11-29T03:34:50.810Z,91.29
2018-11-29T03:37:18.107Z,91.91
2018-11-29T03:39:45.363Z,91.80
2018-11-29T03:42:12.641Z,92.02
2018-11-29T03:44:39.869Z,91.75
2018-11-29T03:47:07.063Z,92.08
2018-11-29T03:49:34.308Z,91.82
2018-11-29T03:52:01.673Z,91.67
2018-11-29T03:54:28.894Z,91.66
2018-11-29T03:56:56.154Z,91.75
2018-11-29T03:59:23.353Z,91.71
2018-11-29T04:01:50.963Z,91.32
2018-11-29T04:04:18.160Z,91.21
2018-11-29T04:06:45.366Z,91.45
2018-11-29T04:09:12.629Z,91.49
2018-11-29T04:11:39.848Z,90.78
2018-11-29T04:14:07.112Z,91.45
2018-11-29T04:16:34.375Z,91.60
2018-11-29T04:19:02.013Z,91.43
2018-11-29T04:21:29.243Z,91.47
2018-11-29T04:23:56.448Z,91.26
2018-11-29T04:26:24.358Z,92.26
2018-11-29T04:28:51.582Z,91.74
2018-11-29T04:31:18.804Z,91.32
2018-11-29T04:33:46.142Z,91.16
2018-11-29T04:36:13.451Z,90.91
2018-11-29T04:38:40.696Z,90.36
2018-11-29T04:41:07.961Z,90.57
2018-11-29T04:43:35.181Z,89.39
2018-11-29T04:47:13.917Z,89.11
2018-11-29T04:49:41.595Z,89.71
2018-11-29T04:52:08.857Z,89.25
2018-11-29T04:54:36.144Z,89.56
2018-11-29T04:57:03.413Z,88.87
2018-11-29T04:59:30.995Z,88.52
2018-11-29T05:01:58.378Z,89.09
2018-11-29T05:04:25.609Z,88.98
2018-11-29T05:06:52.856Z,88.38
2018-11-29T05:09:20.157Z,88.85
2018-11-29T05:11:47.407Z,89.02
2018-11-29T05:14:14.754Z,89.93
2018-11-29T05:16:42.017Z,89.69
2018-11-29T05:19:09.314Z,88.49
2018-11-29T05:21:36.597Z,89.21
2018-11-29T05:24:03.832Z,89.58
2018-11-29T05:26:31.070Z,90.46
2018-11-29T05:28:58.356Z,89.96
2018-11-29T05:31:25.630Z,90.38
2018-11-29T05:33:52.876Z,89.97
2018-11-29T05:36:20.152Z,90.43
2018-11-29T05:38:47.386Z,89.40
2018-11-29T05:41:14.597Z,89.95
2018-11-29T05:43:41.771Z,89.80
2018-11-29T05:46:09.046Z,89.55
2018-11-29T05:48:36.311Z,90.29
2018-11-29T05:51:03.693Z,90.36
2018-11-29T05:53:30.896Z,90.10
2018-11-29T05:55:58.138Z,90.17
2018-11-29T05:58:25.442Z,89.81
2018-11-29T06:00:52.763Z,89.84
2018-11-29T06:03:20.016Z,89.62
2018-11-29T06:05:47.377Z,88.86
2018-11-29T06:08:14.700Z,89.78
2018-11-29T06:10:42.022Z,89.09
2018-11-29T06:13:09.284Z,89.21
2018-11-29T06:15:36.596Z,89.50
2018-11-29T06:18:03.777Z,89.07
2018-11-29T06:20:31.099Z,89.00
2018-11-29T06:22:58.440Z,88.72
2018-11-29T06:25:25.679Z,88.81
2018-11-29T06:27:52.925Z,89.12
2018-11-29T06:30:21.020Z,88.92
2018-11-29T06:32:49.159Z,88.74
2018-11-29T06:35:16.476Z,88.83
2018-11-29T06:37:43.746Z,89.94
2018-11-29T06:40:11.960Z,89.32
2018-11-29T06:42:39.269Z,89.64
2018-11-29T06:45:23.552Z,89.52
2018-11-29T06:47:51.624Z,89.82
2018-11-29T06:50:18.860Z,90.45
2018-11-29T06:52:47.139Z,90.02
2018-11-29T06:55:16.634Z,90.12
2018-11-29T06:57:44.119Z,90.55
2018-11-29T07:00:26.655Z,90.50
2018-11-29T07:02:54.079Z,90.98
2018-11-29T07:05:21.338Z,90.86
2018-11-29T07:07:52.006Z,90.91
2018-11-29T07:10:25.038Z,90.69
2018-11-29T07:12:52.328Z,90.45
2018-11-29T07:15:19.575Z,89.75
2018-11-29T07:17:46.867Z,89.30
2018-11-29T07:20:15.670Z,89.15
2018-11-29T07:22:45.178Z,88.72
2018-11-29T07:25:12.736Z,87.26
2018-11-29T07:27:40.029Z,87.75
2018-11-29T07:30:14.743Z,87.09
2018-11-29T07:32:42.050Z,86.08
2018-11-29T07:35:10.358Z,84.36
2018-11-29T07:37:37.977Z,82.66
2018-11-29T07:40:07.266Z,81.62
2018-11-29T07:42:34.570Z,79.13
2018-11-29T07:45:01.957Z,81.64
2018-11-29T07:47:29.219Z,79.39
2018-11-29T07:49:56.433Z,77.53
2018-11-29T07:52:23.723Z,73.70
2018-11-29T07:54:51.018Z,70.03
2018-11-29T07:57:18.222Z,67.56
2018-11-29T07:59:45.767Z,67.55
2018-11-29T08:02:13.006Z,68.86
2018-11-29T08:04:40.225Z,68.85
2018-11-29T08:07:07.525Z,68.20
2018-11-29T08:09:34.767Z,64.36
2018-11-29T08:12:04.291Z,62.10
2018-11-29T08:14:31.737Z,62.35
2018-11-29T08:16:59.011Z,64.68
2018-11-29T08:19:26.324Z,67.60
2018-11-29T08:21:53.615Z,70.17
2018-11-29T08:24:20.874Z,70.58
2018-11-29T08:26:48.218Z,70.65
2018-11-29T08:29:15.422Z,69.78
2018-11-29T08:31:42.725Z,69.46
2018-11-29T08:34:10.031Z,69.15
2018-11-29T08:36:37.254Z,68.74
2018-11-29T08:39:07.325Z,68.89
2018-11-29T08:41:34.591Z,70.20
2018-11-29T08:44:01.889Z,71.34
2018-11-29T08:46:29.110Z,70.74
2018-11-29T08:48:56.361Z,70.40
2018-11-29T08:51:23.766Z,68.28
2018-11-29T08:53:51.009Z,67.05
2018-11-29T08:56:18.275Z,66.59
2018-11-29T08:58:45.540Z,64.22
2018-11-29T09:01:12.809Z,63.98
2018-11-29T09:03:41.580Z,64.20
2018-11-29T09:06:12.717Z,65.16
2018-11-29T09:08:40.039Z,66.69
2018-11-29T09:11:07.250Z,66.70
2018-11-29T09:13:34.486Z,68.30
2018-11-29T09:16:01.749Z,68.08
2018-11-29T09:18:29.107Z,66.72
2018-11-29T09:20:56.302Z,66.04
2018-11-29T09:23:23.588Z,66.79
2018-11-29T09:25:50.831Z,67.62
2018-11-29T09:28:18.305Z,68.91
2018-11-29T09:30:45.524Z,70.86
2018-11-29T09:33:12.813Z,71.28
2018-11-29T09:35:40.057Z,72.99
2018-11-29T09:38:07.292Z,75.11
2018-11-29T09:40:34.609Z,75.21
2018-11-29T09:43:01.824Z,75.51
2018-11-29T09:45:29.124Z,76.87
2018-11-29T09:47:56.373Z,77.15
2018-11-29T09:50:24.568Z,75.94
2018-11-29T09:52:51.774Z,72.71
2018-11-29T09:55:19.030Z,71.47
2018-11-29T09:57:47.210Z,67.07
2018-11-29T10:00:29.382Z,65.76
2018-11-29T10:03:06.296Z,63.43
2018-11-29T10:05:33.530Z,63.44
2018-11-29T10:08:00.753Z,63.84
2018-11-29T10:10:28.015Z,65.22
2018-11-29T10:12:55.232Z,63.67
2018-11-29T10:15:22.523Z,63.88
2018-11-29T10:17:50.167Z,64.91
2018-11-29T10:20:17.326Z,64.50
2018-11-29T10:22:44.560Z,65.80
2018-11-29T10:25:12.819Z,66.12
2018-11-29T10:27:40.806Z,66.19
2018-11-29T10:30:17.508Z,65.63
2018-11-29T10:32:44.758Z,67.34
2018-11-29T10:35:12.020Z,66.93
2018-11-29T10:37:39.214Z,67.46
2018-11-29T10:40:07.952Z,65.51
2018-11-29T10:42:35.240Z,66.26
2018-11-29T10:45:02.490Z,67.07
2018-11-29T10:47:29.761Z,67.20
2018-11-29T10:49:57.324Z,65.50
2018-11-29T10:52:24.596Z,65.95
2018-11-29T10:54:51.881Z,66.61
2018-11-29T10:57:19.095Z,67.00
2018-11-29T10:59:46.354Z,67.66
2018-11-29T11:02:18.148Z,69.62
2018-11-29T11:04:45.357Z,69.57
2018-11-29T11:07:12.651Z,70.28
2018-11-29T11:09:39.805Z,69.81
2018-11-29T11:12:10.239Z,71.20
2018-11-29T11:14:37.710Z,71.43
2018-11-29T11:17:05.034Z,69.72
2018-11-29T11:19:32.273Z,70.64
2018-11-29T11:21:59.513Z,71.44
2018-11-29T11:24:26.824Z,71.61
2018-11-29T11:26:54.048Z,71.77
2018-11-29T11:29:21.202Z,71.41
2018-11-29T11:31:48.440Z,70.42
2018-11-29T11:34:15.745Z,69.90
2018-11-29T11:36:42.954Z,69.09
2018-11-29T11:39:10.199Z,70.03
2018-11-29T11:41:37.444Z,68.16
2018-11-29T11:44:04.743Z,69.32
2018-11-29T11:46:32.050Z,68.66
2018-11-29T11:48:59.379Z,68.03
2018-11-29T11:51:26.557Z,69.38
2018-11-29T11:53:53.815Z,68.60
2018-11-29T11:56:21.099Z,68.34
2018-11-29T11:58:48.348Z,68.53
2018-11-29T12:01:15.552Z,68.44
2018-11-29T12:03:42.805Z,68.51
2018-11-29T12:06:09.976Z,68.92
2018-11-29T12:08:37.240Z,68.89
2018-11-29T12:11:04.703Z,69.23
2018-11-29T12:13:31.954Z,69.25
2018-11-29T12:15:59.200Z,69.37
2018-11-29T12:18:26.455Z,68.98
2018-11-29T12:20:53.635Z,68.68
2018-11-29T12:23:20.876Z,67.78
2018-11-29T12:25:48.082Z,67.64
2018-11-29T12:28:15.432Z,67.31
2018-11-29T12:30:45.520Z,67.48
2018-11-29T12:33:12.781Z,67.29
2018-11-29T12:35:40.029Z,67.53
2018-11-29T12:38:07.255Z,67.85
2018-11-29T12:40:34.483Z,67.56
2018-11-29T12:43:01.745Z,67.13
2018-11-29T12:45:29.086Z,66.60
2018-11-29T12:47:56.315Z,67.23
2018-11-29T12:50:24.676Z,68.63
2018-11-29T12:52:52.016Z,67.94
2018-11-29T12:55:20.186Z,68.29
2018-11-29T12:57:47.436Z,68.36
2018-11-29T13:00:21.145Z,68.51
2018-11-29T13:02:52.275Z,68.94
2018-11-29T13:05:19.564Z,68.41
2018-11-29T13:07:48.846Z,69.08
2018-11-29T13:10:21.750Z,67.98
2018-11-29T13:12:49.060Z,68.25
2018-11-29T13:15:17.394Z,68.16
2018-11-29T13:17:44.688Z,67.82
2018-11-29T13:20:14.072Z,67.44
2018-11-29T13:22:43.514Z,66.63
2018-11-29T13:25:14.640Z,67.33
2018-11-29T13:27:42.032Z,67.18
2018-11-29T13:30:14.271Z,66.79
2018-11-29T13:32:41.581Z,66.58
2018-11-29T13:35:16.475Z,66.98
2018-11-29T13:37:46.194Z,66.28
2018-11-29T13:40:13.432Z,66.60
2018-11-29T13:42:40.704Z,67.59
2018-11-29T13:45:09.115Z,67.54
2018-11-29T13:47:36.598Z,67.87
2018-11-29T13:50:05.489Z,67.66
2018-11-29T13:52:32.700Z,68.12
2018-11-29T13:54:59.909Z,67.90
2018-11-29T13:57:27.181Z,68.47
2018-11-29T13:59:54.354Z,68.20
2018-11-29T14:02:21.598Z,69.46
2018-11-29T14:04:48.901Z,69.04
2018-11-29T14:07:16.138Z,69.02
2018-11-29T14:09:43.427Z,68.80
2018-11-29T14:12:10.626Z,70.03
2018-11-29T14:14:37.894Z,69.29
2018-11-29T14:17:05.203Z,69.31
2018-11-29T14:19:32.399Z,68.82
2018-11-29T14:21:59.638Z,69.27
2018-11-29T14:24:26.878Z,69.02
2018-11-29T14:26:54.202Z,69.20
2018-11-29T14:29:21.494Z,69.97
2018-11-29T14:31:48.708Z,70.01
2018-11-29T14:34:15.952Z,69.94
2018-11-29T14:36:43.161Z,69.94
2018-11-29T14:39:10.431Z,69.55
2018-11-29T14:41:37.724Z,69.87
2018-11-29T14:44:05.157Z,68.96
2018-11-29T14:46:32.439Z,69.56
2018-11-29T14:48:59.710Z,70.00
2018-11-29T14:51:27.020Z,68.74
2018-11-29T14:53:54.636Z,69.05
2018-11-29T14:56:21.856Z,69.67
2018-11-29T14:58:49.144Z,68.88
2018-11-29T15:01:16.373Z,68.83
2018-11-29T15:03:43.608Z,68.64
2018-11-29T15:06:10.851Z,68.40
2018-11-29T15:08:38.139Z,68.51
2018-11-29T15:11:05.425Z,68.96
2018-11-29T15:13:32.632Z,69.19
2018-11-29T15:15:59.824Z,69.65
2018-11-29T15:18:27.052Z,69.89
2018-11-29T15:20:54.332Z,69.73
2018-11-29T15:23:21.612Z,69.56
2018-11-29T15:25:48.890Z,69.85
2018-11-29T15:28:16.198Z,70.53
2018-11-29T15:30:43.568Z,71.09
2018-11-29T15:33:10.836Z,73.50
2018-11-29T15:35:38.078Z,74.23
2018-11-29T15:38:05.581Z,74.72
2018-11-29T15:40:33.310Z,75.78
2018-11-29T15:43:00.567Z,75.59
2018-11-29T15:45:27.949Z,75.87
2018-11-29T15:47:55.214Z,76.22
2018-11-29T15:50:22.431Z,76.59
2018-11-29T15:52:49.735Z,75.26
2018-11-29T15:55:19.150Z,76.12
2018-11-29T15:57:47.280Z,76.21
2018-11-29T16:00:17.728Z,76.02
2018-11-29T16:02:45.685Z,74.95
2018-11-29T16:05:12.914Z,74.60
2018-11-29T16:07:40.322Z,74.48
2018-11-29T16:10:09.204Z,74.62
2018-11-29T16:12:36.633Z,75.19
2018-11-29T16:15:07.261Z,75.11
2018-11-29T16:17:34.588Z,75.41
2018-11-29T16:20:02.058Z,75.47
2018-11-29T16:22:31.755Z,75.69
2018-11-29T16:24:59.039Z,75.63
2018-11-29T16:27:31.374Z,76.73
2018-11-29T16:30:03.727Z,76.38
2018-11-29T16:32:30.975Z,76.89
2018-11-29T16:34:59.944Z,76.89
2018-11-29T16:37:27.493Z,76.98
2018-11-29T16:39:54.763Z,77.21
2018-11-29T16:42:22.483Z,77.82
2018-11-29T16:44:59.807Z,78.13
2018-11-29T16:47:27.415Z,78.45
2018-11-29T16:49:54.654Z,78.26
2018-11-29T16:52:21.909Z,78.34
2018-11-29T16:54:49.166Z,78.58
2018-11-29T16:57:16.481Z,78.70
2018-11-29T16:59:43.767Z,78.89
2018-11-29T17:02:11.044Z,78.92
2018-11-29T17:04:38.304Z,79.79
2018-11-29T17:07:06.276Z,80.00
2018-11-29T17:09:33.522Z,79.84
2018-11-29T17:12:00.798Z,80.08
2018-11-29T17:14:28.088Z,80.32
2018-11-29T17:16:56.269Z,80.09
2018-11-29T17:19:24.743Z,80.14
2018-11-29T17:21:52.306Z,80.06
2018-11-29T17:24:19.612Z,80.16
2018-11-29T17:26:46.852Z,80.84
2018-11-29T17:29:14.198Z,80.99
2018-11-29T17:31:41.484Z,81.14
2018-11-29T17:34:08.774Z,80.66
2018-11-29T17:36:35.998Z,80.55
2018-11-29T17:39:05.133Z,81.58
2018-11-29T17:41:32.450Z,82.09
2018-11-29T17:43:59.684Z,81.84
2018-11-29T17:46:26.977Z,82.19
2018-11-29T17:48:54.244Z,82.78
2018-11-29T17:51:21.524Z,81.98
2018-11-29T17:53:48.778Z,82.27
2018-11-29T17:56:16.046Z,81.90
2018-11-29T17:58:43.301Z,81.92
2018-11-29T18:01:10.602Z,81.55
2018-11-29T18:03:37.857Z,80.36
2018-11-29T18:06:05.116Z,79.95
2018-11-29T18:08:32.334Z,79.34
2018-11-29T18:10:59.555Z,79.62
2018-11-29T18:13:29.113Z,79.33
2018-11-29T18:15:56.336Z,80.00
2018-11-29T18:18:23.604Z,80.23
2018-11-29T18:20:50.794Z,80.17
2018-11-29T18:23:18.131Z,80.51
2018-11-29T18:25:45.619Z,80.23
2018-11-29T18:28:12.922Z,79.99
2018-11-29T18:30:40.235Z,79.33
2018-11-29T18:33:07.471Z,78.91
2018-11-29T18:35:35.043Z,78.67
2018-11-29T18:38:02.296Z,78.53
2018-11-29T18:40:29.538Z,78.50
2018-11-29T18:42:57.866Z,79.22
2018-11-29T18:45:25.264Z,78.83
2018-11-29T18:47:52.964Z,78.71
2018-11-29T18:50:21.138Z,79.19
2018-11-29T18:52:48.552Z,79.90
2018-11-29T18:55:16.258Z,80.26
2018-11-29T18:57:43.620Z,79.81
2018-11-29T19:00:13.267Z,80.43
2018-11-29T19:02:40.721Z,80.85
2018-11-29T19:05:08.547Z,81.24
2018-11-29T19:07:36.414Z,82.74
2018-11-29T19:10:06.600Z,83.07
2018-11-29T19:12:33.957Z,82.95
2018-11-29T19:15:03.067Z,83.57
2018-11-29T19:17:30.264Z,82.92
2018-11-29T19:19:57.548Z,83.25
2018-11-29T19:22:24.819Z,83.34
2018-11-29T19:24:52.068Z,83.78
2018-11-29T19:27:19.332Z,83.60
2018-11-29T19:29:46.502Z,84.07
2018-11-29T19:32:13.799Z,83.94
2018-11-29T19:34:41.243Z,83.58
2018-11-29T19:37:08.564Z,83.03
2018-11-29T19:39:35.868Z,82.99
2018-11-29T19:42:03.158Z,82.57
2018-11-29T19:44:30.382Z,82.61
2018-11-29T19:46:57.643Z,82.60
2018-11-29T19:49:25.789Z,82.62
2018-11-29T19:51:53.123Z,82.72
2018-11-29T19:54:20.394Z,82.67
2018-11-29T19:56:48.064Z,82.82
2018-11-29T19:59:15.299Z,81.86
2018-11-29T20:01:46.888Z,82.44
2018-11-29T20:04:14.149Z,82.53
2018-11-29T20:06:41.412Z,83.50
2018-11-29T20:09:08.676Z,83.70
2018-11-29T20:11:39.941Z,83.85
2018-11-29T20:14:07.200Z,83.40
2018-11-29T20:16:38.947Z,84.16
2018-11-29T20:19:06.252Z,84.28
2018-11-29T20:21:37.264Z,84.14
2018-11-29T20:24:07.314Z,84.86
2018-11-29T20:26:34.573Z,84.34
2018-11-29T20:29:01.840Z,84.21
2018-11-29T20:31:29.295Z,83.93
2018-11-29T20:33:56.556Z,83.32
2018-11-29T20:36:23.928Z,83.42
2018-11-29T20:38:51.140Z,83.21
2018-11-29T20:41:18.470Z,83.85
2018-11-29T20:43:45.712Z,83.70
2018-11-29T20:46:13.105Z,83.64
2018-11-29T20:48:40.327Z,83.79
2018-11-29T20:51:07.580Z,83.46
2018-11-29T20:53:37.410Z,83.65
2018-11-29T20:56:07.739Z,83.77
2018-11-29T20:58:35.184Z,83.73
2018-11-29T21:01:02.454Z,84.54
2018-11-29T21:03:29.803Z,84.21
2018-11-29T21:05:57.338Z,83.99
2018-11-29T21:08:24.670Z,83.65
2018-11-29T21:10:51.989Z,84.01
2018-11-29T21:13:19.249Z,84.84
2018-11-29T21:15:46.538Z,84.50
2018-11-29T21:18:14.367Z,84.87
2018-11-29T21:20:42.429Z,84.46
2018-11-29T21:23:13.404Z,84.30
2018-11-29T21:25:43.972Z,84.32
2018-11-29T21:28:11.233Z,84.16
2018-11-29T21:30:38.499Z,85.46
2018-11-29T21:33:06.330Z,85.88
2018-11-29T21:35:33.623Z,86.29
2018-11-29T21:38:10.245Z,86.39
2018-11-29T21:40:37.498Z,86.34
2018-11-29T21:43:04.777Z,86.29
2018-11-29T21:45:32.015Z,86.69
2018-11-29T21:47:59.258Z,86.81
2018-11-29T21:50:26.495Z,86.43
2018-11-29T21:52:53.756Z,85.71
2018-11-29T21:55:21.041Z,85.72
2018-11-29T21:57:48.276Z,86.09
2018-11-29T22:00:18.022Z,85.94
2018-11-29T22:02:48.481Z,85.97
2018-11-29T22:05:15.734Z,86.05
2018-11-29T22:07:42.997Z,86.00
2018-11-29T22:10:11.992Z,85.98
2018-11-29T22:12:39.224Z,85.71
2018-11-29T22:15:08.535Z,85.62
2018-11-29T22:17:38.902Z,84.85
2018-11-29T22:20:06.300Z,84.79
2018-11-29T22:22:33.609Z,85.52
2018-11-29T22:25:00.834Z,86.91
2018-11-29T22:27:28.075Z,88.52
2018-11-29T22:29:55.378Z,88.80
2018-11-29T22:32:22.626Z,88.54
2018-11-29T22:34:50.797Z,87.91
2018-11-29T22:37:18.090Z,87.35
2018-11-29T22:39:45.365Z,87.06
2018-11-29T22:42:12.761Z,87.99
2018-11-29T22:44:40.052Z,88.02
2018-11-29T22:47:07.265Z,87.33
2018-11-29T22:49:34.466Z,87.85
2018-11-29T22:52:01.759Z,87.51
2018-11-29T22:54:29.064Z,87.74
2018-11-29T22:56:56.398Z,86.91
2018-11-29T22:59:23.648Z,86.79
2018-11-29T23:01:50.861Z,88.17
2018-11-29T23:04:18.168Z,88.72
2018-11-29T23:06:45.423Z,89.10
2018-11-29T23:09:12.659Z,88.29
2018-11-29T23:11:39.967Z,88.50
2018-11-29T23:14:07.252Z,87.63
2018-11-29T23:16:34.524Z,87.97
2018-11-29T23:19:02.016Z,87.49
2018-11-29T23:21:29.280Z,86.99
2018-11-29T23:23:56.554Z,87.50
2018-11-29T23:26:23.775Z,87.62
2018-11-29T23:28:50.992Z,88.00
2018-11-29T23:31:18.244Z,88.01
2018-11-29T23:33:45.481Z,88.08
2018-11-29T23:36:12.802Z,87.47
2018-11-29T23:38:39.996Z,87.79
2018-11-29T23:41:07.236Z,87.01
2018-11-29T23:43:34.598Z,87.42
2018-11-29T23:46:01.903Z,87.61
2018-11-29T23:51:05.306Z,87.20
2018-11-29T23:53:32.601Z,86.84
2018-11-29T23:56:01.685Z,87.09
2018-11-29T23:58:28.887Z,86.86
